sensor_id;sensor_type;location;lat;lon;timestamp;temperature;humidity
4787;DHT22;62338;48.832;9.422;2022-12-18T00:01:47;-6.70;99.90
4787;DHT22;62338;48.832;9.422;2022-12-18T00:03:50;-6.80;99.90
4787;DHT22;62338;48.832;9.422;2022-12-18T00:05:53;-6.80;99.90
4787;DHT22;62338;48.832;9.422;2022-12-18T00:07:55;-6.90;99.90
4787;DHT22;62338;48.832;9.422;2022-12-18T00:09:57;-6.90;99.90
4787;DHT22;62338;48.832;9.422;2022-12-18T00:11:58;-6.90;99.90
4787;DHT22;62338;48.832;9.422;2022-12-18T00:14:16;-6.90;99.90
4787;DHT22;62338;48.832;9.422;2022-12-18T00:16:20;-6.80;99.90
4787;DHT22;62338;48.832;9.422;2022-12-18T00:18:22;-6.80;99.90
4787;DHT22;62338;48.832;9.422;2022-12-18T00:20:24;-6.80;99.90
4787;DHT22;62338;48.832;9.422;2022-12-18T00:22:27;-6.70;99.90
4787;DHT22;62338;48.832;9.422;2022-12-18T00:24:29;-6.80;99.90
4787;DHT22;62338;48.832;9.422;2022-12-18T00:26:32;-6.90;99.90
4787;DHT22;62338;48.832;9.422;2022-12-18T00:28:35;-6.90;99.90
4787;DHT22;62338;48.832;9.422;2022-12-18T00:30:37;-7.00;99.90
4787;DHT22;62338;48.832;9.422;2022-12-18T00:32:38;-7.10;99.90
4787;DHT22;62338;48.832;9.422;2022-12-18T00:34:40;-7.10;99.90
4787;DHT22;62338;48.832;9.422;2022-12-18T00:36:42;-6.90;99.90
4787;DHT22;62338;48.832;9.422;2022-12-18T00:38:44;-7.00;99.90
4787;DHT22;62338;48.832;9.422;2022-12-18T00:40:46;-7.00;99.90
4787;DHT22;62338;48.832;9.422;2022-12-18T00:42:48;-7.00;99.90
4787;DHT22;62338;48.832;9.422;2022-12-18T00:44:59;-7.00;99.90
4787;DHT22;62338;48.832;9.422;2022-12-18T00:47:01;-7.00;99.90
4787;DHT22;62338;48.832;9.422;2022-12-18T00:49:03;-7.10;99.90
4787;DHT22;62338;48.832;9.422;2022-12-18T00:51:05;-7.10;99.90
4787;DHT22;62338;48.832;9.422;2022-12-18T00:53:08;-7.10;99.90
4787;DHT22;62338;48.832;9.422;2022-12-18T00:55:10;-7.10;99.90
4787;DHT22;62338;48.832;9.422;2022-12-18T00:57:12;-7.10;99.90
4787;DHT22;62338;48.832;9.422;2022-12-18T00:59:15;-7.10;99.90
4787;DHT22;62338;48.832;9.422;2022-12-18T01:01:17;-7.20;99.90
4787;DHT22;62338;48.832;9.422;2022-12-18T01:03:19;-7.20;99.90
4787;DHT22;62338;48.832;9.422;2022-12-18T01:05:21;-7.20;99.90
4787;DHT22;62338;48.832;9.422;2022-12-18T01:07:23;-7.20;99.90
4787;DHT22;62338;48.832;9.422;2022-12-18T01:09:25;-7.20;99.90
4787;DHT22;62338;48.832;9.422;2022-12-18T01:11:27;-7.10;99.90
4787;DHT22;62338;48.832;9.422;2022-12-18T01:13:29;-7.00;99.90
4787;DHT22;62338;48.832;9.422;2022-12-18T01:15:31;-7.00;99.90
4787;DHT22;62338;48.832;9.422;2022-12-18T01:17:33;-6.90;99.90
4787;DHT22;62338;48.832;9.422;2022-12-18T01:19:34;-7.00;99.90
4787;DHT22;62338;48.832;9.422;2022-12-18T01:21:36;-6.90;99.90
4787;DHT22;62338;48.832;9.422;2022-12-18T01:23:38;-7.00;99.90
4787;DHT22;62338;48.832;9.422;2022-12-18T01:25:41;-7.00;99.90
4787;DHT22;62338;48.832;9.422;2022-12-18T01:27:43;-7.00;99.90
4787;DHT22;62338;48.832;9.422;2022-12-18T01:29:45;-7.00;99.90
4787;DHT22;62338;48.832;9.422;2022-12-18T01:31:46;-7.10;99.90
4787;DHT22;62338;48.832;9.422;2022-12-18T01:33:50;-7.10;99.90
4787;DHT22;62338;48.832;9.422;2022-12-18T01:35:52;-7.20;99.90
4787;DHT22;62338;48.832;9.422;2022-12-18T01:37:55;-7.20;99.90
4787;DHT22;62338;48.832;9.422;2022-12-18T01:39:57;-7.20;99.90
4787;DHT22;62338;48.832;9.422;2022-12-18T01:42:00;-7.20;99.90
4787;DHT22;62338;48.832;9.422;2022-12-18T01:46:43;-7.40;99.90
4787;DHT22;62338;48.832;9.422;2022-12-18T01:48:48;-7.40;99.90
4787;DHT22;62338;48.832;9.422;2022-12-18T01:50:51;-7.40;99.90
4787;DHT22;62338;48.832;9.422;2022-12-18T01:52:55;-7.40;99.90
4787;DHT22;62338;48.832;9.422;2022-12-18T01:54:59;-7.40;99.90
4787;DHT22;62338;48.832;9.422;2022-12-18T01:57:02;-7.40;99.90
4787;DHT22;62338;48.832;9.422;2022-12-18T01:59:06;-7.40;99.90
4787;DHT22;62338;48.832;9.422;2022-12-18T02:01:09;-7.40;99.90
4787;DHT22;62338;48.832;9.422;2022-12-18T02:03:11;-7.30;99.90
4787;DHT22;62338;48.832;9.422;2022-12-18T02:10:10;-7.60;99.90
4787;DHT22;62338;48.832;9.422;2022-12-18T02:12:34;-7.60;99.90
4787;DHT22;62338;48.832;9.422;2022-12-18T02:16:51;-7.60;99.90
4787;DHT22;62338;48.832;9.422;2022-12-18T02:18:59;-7.50;99.90
4787;DHT22;62338;48.832;9.422;2022-12-18T02:21:40;-7.40;99.90
4787;DHT22;62338;48.832;9.422;2022-12-18T02:26:22;-7.40;99.90
4787;DHT22;62338;48.832;9.422;2022-12-18T02:28:31;-7.40;99.90
4787;DHT22;62338;48.832;9.422;2022-12-18T02:30:35;-7.40;99.90
4787;DHT22;62338;48.832;9.422;2022-12-18T02:32:42;-7.50;99.90
4787;DHT22;62338;48.832;9.422;2022-12-18T02:34:46;-7.50;99.90
4787;DHT22;62338;48.832;9.422;2022-12-18T02:36:48;-7.50;99.90
4787;DHT22;62338;48.832;9.422;2022-12-18T02:38:52;-7.40;99.90
4787;DHT22;62338;48.832;9.422;2022-12-18T02:40:55;-7.40;99.90
4787;DHT22;62338;48.832;9.422;2022-12-18T02:43:11;-7.50;99.90
4787;DHT22;62338;48.832;9.422;2022-12-18T02:45:13;-7.50;99.90
4787;DHT22;62338;48.832;9.422;2022-12-18T02:47:19;-7.50;99.90
4787;DHT22;62338;48.832;9.422;2022-12-18T02:51:55;-7.50;99.90
4787;DHT22;62338;48.832;9.422;2022-12-18T02:54:16;-7.40;99.90
4787;DHT22;62338;48.832;9.422;2022-12-18T02:56:29;-7.50;99.90
4787;DHT22;62338;48.832;9.422;2022-12-18T03:01:34;-7.40;99.90
4787;DHT22;62338;48.832;9.422;2022-12-18T03:03:44;-7.40;99.90
4787;DHT22;62338;48.832;9.422;2022-12-18T03:08:10;-7.40;99.90
4787;DHT22;62338;48.832;9.422;2022-12-18T03:10:18;-7.40;99.90
4787;DHT22;62338;48.832;9.422;2022-12-18T03:12:34;-7.40;99.90
4787;DHT22;62338;48.832;9.422;2022-12-18T03:14:38;-7.40;99.90
4787;DHT22;62338;48.832;9.422;2022-12-18T03:16:42;-7.50;99.90
4787;DHT22;62338;48.832;9.422;2022-12-18T03:18:49;-7.40;99.90
4787;DHT22;62338;48.832;9.422;2022-12-18T03:20:53;-7.60;99.90
4787;DHT22;62338;48.832;9.422;2022-12-18T03:23:09;-7.60;99.90
4787;DHT22;62338;48.832;9.422;2022-12-18T03:25:13;-7.60;99.90
4787;DHT22;62338;48.832;9.422;2022-12-18T03:27:18;-7.70;99.90
4787;DHT22;62338;48.832;9.422;2022-12-18T03:29:33;-7.80;99.90
4787;DHT22;62338;48.832;9.422;2022-12-18T03:31:37;-7.70;99.90
4787;DHT22;62338;48.832;9.422;2022-12-18T03:33:46;-7.80;99.90
4787;DHT22;62338;48.832;9.422;2022-12-18T03:35:48;-7.90;99.90
4787;DHT22;62338;48.832;9.422;2022-12-18T03:37:55;-7.80;99.90
4787;DHT22;62338;48.832;9.422;2022-12-18T03:39:57;-7.80;99.90
4787;DHT22;62338;48.832;9.422;2022-12-18T03:42:12;-7.90;99.90
4787;DHT22;62338;48.832;9.422;2022-12-18T03:44:21;-7.90;99.90
4787;DHT22;62338;48.832;9.422;2022-12-18T03:46:41;-7.80;99.90
4787;DHT22;62338;48.832;9.422;2022-12-18T03:48:52;-7.90;99.90
4787;DHT22;62338;48.832;9.422;2022-12-18T03:53:43;-8.10;99.90
4787;DHT22;62338;48.832;9.422;2022-12-18T03:55:49;-8.10;99.90
4787;DHT22;62338;48.832;9.422;2022-12-18T03:57:52;-8.10;99.90
4787;DHT22;62338;48.832;9.422;2022-12-18T03:59:59;-8.20;99.90
4787;DHT22;62338;48.832;9.422;2022-12-18T04:02:04;-8.20;99.90
4787;DHT22;62338;48.832;9.422;2022-12-18T04:04:08;-8.20;99.90
4787;DHT22;62338;48.832;9.422;2022-12-18T04:06:11;-8.30;99.90
4787;DHT22;62338;48.832;9.422;2022-12-18T04:08:14;-8.30;99.90
4787;DHT22;62338;48.832;9.422;2022-12-18T04:10:16;-8.30;99.90
4787;DHT22;62338;48.832;9.422;2022-12-18T04:12:18;-8.40;99.90
4787;DHT22;62338;48.832;9.422;2022-12-18T04:14:20;-8.40;99.90
4787;DHT22;62338;48.832;9.422;2022-12-18T04:16:23;-8.30;99.90
4787;DHT22;62338;48.832;9.422;2022-12-18T04:18:25;-8.40;99.90
4787;DHT22;62338;48.832;9.422;2022-12-18T04:20:27;-8.40;99.90
4787;DHT22;62338;48.832;9.422;2022-12-18T04:22:29;-8.40;99.90
4787;DHT22;62338;48.832;9.422;2022-12-18T04:24:30;-8.40;99.90
4787;DHT22;62338;48.832;9.422;2022-12-18T04:26:32;-8.50;99.90
4787;DHT22;62338;48.832;9.422;2022-12-18T04:28:34;-8.40;99.90
4787;DHT22;62338;48.832;9.422;2022-12-18T04:30:36;-8.40;99.90
4787;DHT22;62338;48.832;9.422;2022-12-18T04:32:38;-8.40;99.90
4787;DHT22;62338;48.832;9.422;2022-12-18T04:34:39;-8.40;99.90
4787;DHT22;62338;48.832;9.422;2022-12-18T04:36:41;-8.40;99.90
4787;DHT22;62338;48.832;9.422;2022-12-18T04:38:43;-8.40;99.90
4787;DHT22;62338;48.832;9.422;2022-12-18T04:40:45;-8.40;99.90
4787;DHT22;62338;48.832;9.422;2022-12-18T04:42:47;-8.40;99.90
4787;DHT22;62338;48.832;9.422;2022-12-18T04:44:49;-8.40;99.90
4787;DHT22;62338;48.832;9.422;2022-12-18T04:46:50;-8.40;99.90
4787;DHT22;62338;48.832;9.422;2022-12-18T04:48:52;-8.40;99.90
4787;DHT22;62338;48.832;9.422;2022-12-18T04:50:54;-8.40;99.90
4787;DHT22;62338;48.832;9.422;2022-12-18T04:52:56;-8.30;99.90
4787;DHT22;62338;48.832;9.422;2022-12-18T04:54:58;-8.30;99.90
4787;DHT22;62338;48.832;9.422;2022-12-18T04:57:00;-8.30;99.90
4787;DHT22;62338;48.832;9.422;2022-12-18T04:59:02;-8.30;99.90
4787;DHT22;62338;48.832;9.422;2022-12-18T05:01:05;-8.20;99.90
4787;DHT22;62338;48.832;9.422;2022-12-18T05:03:09;-8.30;99.90
4787;DHT22;62338;48.832;9.422;2022-12-18T05:05:10;-8.20;99.90
4787;DHT22;62338;48.832;9.422;2022-12-18T05:07:12;-8.40;99.90
4787;DHT22;62338;48.832;9.422;2022-12-18T05:09:14;-8.30;99.90
4787;DHT22;62338;48.832;9.422;2022-12-18T05:11:17;-8.40;99.90
4787;DHT22;62338;48.832;9.422;2022-12-18T05:13:19;-8.40;99.90
4787;DHT22;62338;48.832;9.422;2022-12-18T05:15:21;-8.50;99.90
4787;DHT22;62338;48.832;9.422;2022-12-18T05:17:23;-8.50;99.90
4787;DHT22;62338;48.832;9.422;2022-12-18T05:19:24;-8.50;99.90
4787;DHT22;62338;48.832;9.422;2022-12-18T05:21:26;-8.50;99.90
4787;DHT22;62338;48.832;9.422;2022-12-18T05:23:28;-8.40;99.90
4787;DHT22;62338;48.832;9.422;2022-12-18T05:25:30;-8.40;99.90
4787;DHT22;62338;48.832;9.422;2022-12-18T05:27:32;-8.30;99.90
4787;DHT22;62338;48.832;9.422;2022-12-18T05:29:34;-8.40;99.90
4787;DHT22;62338;48.832;9.422;2022-12-18T05:31:36;-8.20;99.90
4787;DHT22;62338;48.832;9.422;2022-12-18T05:33:40;-8.30;99.90
4787;DHT22;62338;48.832;9.422;2022-12-18T05:35:43;-8.30;99.90
4787;DHT22;62338;48.832;9.422;2022-12-18T05:37:45;-8.30;99.90
4787;DHT22;62338;48.832;9.422;2022-12-18T05:39:47;-8.30;99.90
4787;DHT22;62338;48.832;9.422;2022-12-18T05:41:48;-8.00;99.90
4787;DHT22;62338;48.832;9.422;2022-12-18T05:43:50;-8.10;99.90
4787;DHT22;62338;48.832;9.422;2022-12-18T05:45:53;-8.10;99.90
4787;DHT22;62338;48.832;9.422;2022-12-18T05:47:55;-8.10;99.90
4787;DHT22;62338;48.832;9.422;2022-12-18T05:49:57;-8.10;99.90
4787;DHT22;62338;48.832;9.422;2022-12-18T05:51:59;-8.10;99.90
4787;DHT22;62338;48.832;9.422;2022-12-18T05:54:01;-8.00;99.90
4787;DHT22;62338;48.832;9.422;2022-12-18T05:56:06;-8.00;99.90
4787;DHT22;62338;48.832;9.422;2022-12-18T05:58:09;-8.00;99.90
4787;DHT22;62338;48.832;9.422;2022-12-18T06:00:12;-8.00;99.90
4787;DHT22;62338;48.832;9.422;2022-12-18T06:02:14;-8.10;99.90
4787;DHT22;62338;48.832;9.422;2022-12-18T06:04:16;-8.10;99.90
4787;DHT22;62338;48.832;9.422;2022-12-18T06:06:21;-8.10;99.90
4787;DHT22;62338;48.832;9.422;2022-12-18T06:08:24;-8.10;99.90
4787;DHT22;62338;48.832;9.422;2022-12-18T06:10:26;-8.10;99.90
4787;DHT22;62338;48.832;9.422;2022-12-18T06:12:27;-8.10;99.90
4787;DHT22;62338;48.832;9.422;2022-12-18T06:14:29;-8.10;99.90
4787;DHT22;62338;48.832;9.422;2022-12-18T06:16:31;-8.10;99.90
4787;DHT22;62338;48.832;9.422;2022-12-18T06:18:33;-8.10;99.90
4787;DHT22;62338;48.832;9.422;2022-12-18T06:20:35;-7.90;99.90
4787;DHT22;62338;48.832;9.422;2022-12-18T06:22:38;-8.00;99.90
4787;DHT22;62338;48.832;9.422;2022-12-18T06:24:40;-7.90;99.90
4787;DHT22;62338;48.832;9.422;2022-12-18T06:26:42;-7.90;99.90
4787;DHT22;62338;48.832;9.422;2022-12-18T06:28:44;-7.80;99.90
4787;DHT22;62338;48.832;9.422;2022-12-18T06:30:47;-7.80;99.90
4787;DHT22;62338;48.832;9.422;2022-12-18T06:32:50;-7.80;99.90
4787;DHT22;62338;48.832;9.422;2022-12-18T06:34:57;-7.80;99.90
4787;DHT22;62338;48.832;9.422;2022-12-18T06:36:59;-7.80;99.90
4787;DHT22;62338;48.832;9.422;2022-12-18T06:39:01;-7.80;99.90
4787;DHT22;62338;48.832;9.422;2022-12-18T06:41:17;-7.80;99.90
4787;DHT22;62338;48.832;9.422;2022-12-18T06:43:19;-7.80;99.90
4787;DHT22;62338;48.832;9.422;2022-12-18T06:45:21;-7.90;99.90
4787;DHT22;62338;48.832;9.422;2022-12-18T06:47:23;-7.90;99.90
4787;DHT22;62338;48.832;9.422;2022-12-18T06:49:25;-7.90;99.90
4787;DHT22;62338;48.832;9.422;2022-12-18T06:51:31;-7.90;99.90
4787;DHT22;62338;48.832;9.422;2022-12-18T06:53:33;-8.00;99.90
4787;DHT22;62338;48.832;9.422;2022-12-18T06:55:35;-7.90;99.90
4787;DHT22;62338;48.832;9.422;2022-12-18T06:57:37;-7.90;99.90
4787;DHT22;62338;48.832;9.422;2022-12-18T06:59:39;-8.00;99.90
4787;DHT22;62338;48.832;9.422;2022-12-18T07:01:41;-7.90;99.90
4787;DHT22;62338;48.832;9.422;2022-12-18T07:03:45;-7.90;99.90
4787;DHT22;62338;48.832;9.422;2022-12-18T07:05:48;-7.90;99.90
4787;DHT22;62338;48.832;9.422;2022-12-18T07:07:50;-7.80;99.90
4787;DHT22;62338;48.832;9.422;2022-12-18T07:09:52;-7.80;99.90
4787;DHT22;62338;48.832;9.422;2022-12-18T07:11:54;-7.90;99.90
4787;DHT22;62338;48.832;9.422;2022-12-18T07:13:56;-7.90;99.90
4787;DHT22;62338;48.832;9.422;2022-12-18T07:16:15;-7.80;99.90
4787;DHT22;62338;48.832;9.422;2022-12-18T07:18:26;-7.90;99.90
4787;DHT22;62338;48.832;9.422;2022-12-18T07:20:28;-7.90;99.90
4787;DHT22;62338;48.832;9.422;2022-12-18T07:22:31;-7.80;99.90
4787;DHT22;62338;48.832;9.422;2022-12-18T07:24:33;-7.70;99.90
4787;DHT22;62338;48.832;9.422;2022-12-18T07:26:36;-7.80;99.90
4787;DHT22;62338;48.832;9.422;2022-12-18T07:28:39;-7.80;99.90
4787;DHT22;62338;48.832;9.422;2022-12-18T07:30:42;-7.80;99.90
4787;DHT22;62338;48.832;9.422;2022-12-18T07:32:44;-7.70;99.90
4787;DHT22;62338;48.832;9.422;2022-12-18T07:34:45;-7.70;99.90
4787;DHT22;62338;48.832;9.422;2022-12-18T07:36:47;-7.60;99.90
4787;DHT22;62338;48.832;9.422;2022-12-18T07:38:50;-7.50;99.90
4787;DHT22;62338;48.832;9.422;2022-12-18T07:40:53;-7.40;99.90
4787;DHT22;62338;48.832;9.422;2022-12-18T07:42:54;-7.30;99.90
4787;DHT22;62338;48.832;9.422;2022-12-18T07:44:57;-7.20;99.90
4787;DHT22;62338;48.832;9.422;2022-12-18T07:46:59;-7.10;99.90
4787;DHT22;62338;48.832;9.422;2022-12-18T07:49:01;-7.00;99.90
4787;DHT22;62338;48.832;9.422;2022-12-18T07:51:05;-7.00;99.90
4787;DHT22;62338;48.832;9.422;2022-12-18T07:53:07;-6.90;99.90
4787;DHT22;62338;48.832;9.422;2022-12-18T07:55:09;-6.80;99.90
4787;DHT22;62338;48.832;9.422;2022-12-18T07:57:10;-6.70;99.90
4787;DHT22;62338;48.832;9.422;2022-12-18T07:59:32;-6.60;99.90
4787;DHT22;62338;48.832;9.422;2022-12-18T08:01:34;-6.40;99.90
4787;DHT22;62338;48.832;9.422;2022-12-18T08:03:37;-6.20;99.90
4787;DHT22;62338;48.832;9.422;2022-12-18T08:05:40;-6.10;99.90
4787;DHT22;62338;48.832;9.422;2022-12-18T08:07:42;-6.00;99.90
4787;DHT22;62338;48.832;9.422;2022-12-18T08:09:44;-5.90;99.90
4787;DHT22;62338;48.832;9.422;2022-12-18T08:11:45;-5.80;99.90
4787;DHT22;62338;48.832;9.422;2022-12-18T08:13:47;-5.60;99.90
4787;DHT22;62338;48.832;9.422;2022-12-18T08:15:57;-5.30;99.90
4787;DHT22;62338;48.832;9.422;2022-12-18T08:17:59;-5.00;95.60
4787;DHT22;62338;48.832;9.422;2022-12-18T08:20:01;-4.70;76.90
4787;DHT22;62338;48.832;9.422;2022-12-18T08:22:04;-4.40;28.30
4787;DHT22;62338;48.832;9.422;2022-12-18T08:24:06;-4.20;1.00
4787;DHT22;62338;48.832;9.422;2022-12-18T08:26:08;-4.10;1.00
4787;DHT22;62338;48.832;9.422;2022-12-18T08:28:10;-3.90;1.00
4787;DHT22;62338;48.832;9.422;2022-12-18T08:30:12;-3.70;1.00
4787;DHT22;62338;48.832;9.422;2022-12-18T08:32:14;-3.60;1.00
4787;DHT22;62338;48.832;9.422;2022-12-18T08:34:16;-3.50;1.00
4787;DHT22;62338;48.832;9.422;2022-12-18T08:36:18;-3.30;1.00
4787;DHT22;62338;48.832;9.422;2022-12-18T08:38:21;-3.10;1.00
4787;DHT22;62338;48.832;9.422;2022-12-18T08:40:24;-2.90;1.00
4787;DHT22;62338;48.832;9.422;2022-12-18T08:42:26;-2.80;1.00
4787;DHT22;62338;48.832;9.422;2022-12-18T08:44:46;-2.40;1.00
4787;DHT22;62338;48.832;9.422;2022-12-18T08:46:48;-2.20;99.90
4787;DHT22;62338;48.832;9.422;2022-12-18T08:48:51;-1.80;99.90
4787;DHT22;62338;48.832;9.422;2022-12-18T08:50:57;-1.70;99.90
4787;DHT22;62338;48.832;9.422;2022-12-18T08:52:59;-1.70;36.50
4787;DHT22;62338;48.832;9.422;2022-12-18T08:55:01;-1.70;99.90
4787;DHT22;62338;48.832;9.422;2022-12-18T08:57:03;-1.50;1.00
4787;DHT22;62338;48.832;9.422;2022-12-18T08:59:05;-1.40;1.00
4787;DHT22;62338;48.832;9.422;2022-12-18T09:01:09;-1.30;1.00
4787;DHT22;62338;48.832;9.422;2022-12-18T09:03:15;-1.20;1.00
4787;DHT22;62338;48.832;9.422;2022-12-18T09:05:17;-1.10;1.00
4787;DHT22;62338;48.832;9.422;2022-12-18T09:07:19;-0.60;99.90
4787;DHT22;62338;48.832;9.422;2022-12-18T09:09:21;-0.30;1.00
4787;DHT22;62338;48.832;9.422;2022-12-18T09:11:25;0.00;1.00
4787;DHT22;62338;48.832;9.422;2022-12-18T09:13:28;0.20;99.90
4787;DHT22;62338;48.832;9.422;2022-12-18T09:15:30;0.20;1.00
4787;DHT22;62338;48.832;9.422;2022-12-18T09:17:32;0.00;99.90
4787;DHT22;62338;48.832;9.422;2022-12-18T09:19:33;0.10;1.00
4787;DHT22;62338;48.832;9.422;2022-12-18T09:21:35;0.40;99.90
4787;DHT22;62338;48.832;9.422;2022-12-18T09:23:38;0.40;1.00
4787;DHT22;62338;48.832;9.422;2022-12-18T09:25:40;0.40;1.00
4787;DHT22;62338;48.832;9.422;2022-12-18T09:27:42;0.10;99.90
4787;DHT22;62338;48.832;9.422;2022-12-18T09:29:44;0.40;1.00
4787;DHT22;62338;48.832;9.422;2022-12-18T09:31:46;0.50;1.00
4787;DHT22;62338;48.832;9.422;2022-12-18T09:33:47;0.50;1.00
4787;DHT22;62338;48.832;9.422;2022-12-18T09:35:49;0.50;99.90
4787;DHT22;62338;48.832;9.422;2022-12-18T09:37:51;0.60;99.90
4787;DHT22;62338;48.832;9.422;2022-12-18T09:39:53;0.60;99.90
4787;DHT22;62338;48.832;9.422;2022-12-18T09:41:57;0.70;99.90
4787;DHT22;62338;48.832;9.422;2022-12-18T09:44:03;0.60;1.00
4787;DHT22;62338;48.832;9.422;2022-12-18T09:46:10;0.50;1.00
4787;DHT22;62338;48.832;9.422;2022-12-18T09:48:28;0.50;99.90
4787;DHT22;62338;48.832;9.422;2022-12-18T09:50:35;0.60;1.00
4787;DHT22;62338;48.832;9.422;2022-12-18T09:52:45;0.40;99.90
4787;DHT22;62338;48.832;9.422;2022-12-18T09:54:58;0.70;1.00
4787;DHT22;62338;48.832;9.422;2022-12-18T09:57:03;0.80;1.00
4787;DHT22;62338;48.832;9.422;2022-12-18T09:59:05;0.70;99.90
4787;DHT22;62338;48.832;9.422;2022-12-18T10:01:13;0.70;99.90
4787;DHT22;62338;48.832;9.422;2022-12-18T10:03:16;0.70;1.00
4787;DHT22;62338;48.832;9.422;2022-12-18T10:08:11;1.00;1.00
4787;DHT22;62338;48.832;9.422;2022-12-18T10:17:35;1.50;96.70
4787;DHT22;62338;48.832;9.422;2022-12-18T10:20:00;1.30;99.90
4787;DHT22;62338;48.832;9.422;2022-12-18T10:24:40;1.30;99.90
4787;DHT22;62338;48.832;9.422;2022-12-18T10:26:43;1.10;99.90
4787;DHT22;62338;48.832;9.422;2022-12-18T10:28:45;1.00;1.00
4787;DHT22;62338;48.832;9.422;2022-12-18T10:30:47;0.80;1.00
4787;DHT22;62338;48.832;9.422;2022-12-18T10:32:49;0.60;1.00
4787;DHT22;62338;48.832;9.422;2022-12-18T10:34:55;0.60;99.90
4787;DHT22;62338;48.832;9.422;2022-12-18T10:37:06;0.70;1.00
4787;DHT22;62338;48.832;9.422;2022-12-18T10:39:22;1.20;99.90
4787;DHT22;62338;48.832;9.422;2022-12-18T10:41:26;1.50;99.90
4787;DHT22;62338;48.832;9.422;2022-12-18T10:43:30;1.90;1.00
4787;DHT22;62338;48.832;9.422;2022-12-18T10:45:33;2.30;1.00
4787;DHT22;62338;48.832;9.422;2022-12-18T10:47:35;1.90;1.00
4787;DHT22;62338;48.832;9.422;2022-12-18T10:49:47;1.60;99.90
4787;DHT22;62338;48.832;9.422;2022-12-18T10:51:51;1.30;84.60
4787;DHT22;62338;48.832;9.422;2022-12-18T10:54:16;1.20;99.90
4787;DHT22;62338;48.832;9.422;2022-12-18T10:56:20;1.40;1.00
4787;DHT22;62338;48.832;9.422;2022-12-18T11:00:30;1.90;1.00
4787;DHT22;62338;48.832;9.422;2022-12-18T11:02:37;1.80;1.00
4787;DHT22;62338;48.832;9.422;2022-12-18T11:04:50;1.30;1.00
4787;DHT22;62338;48.832;9.422;2022-12-18T11:06:55;1.10;1.00
4787;DHT22;62338;48.832;9.422;2022-12-18T11:09:39;0.80;1.00
4787;DHT22;62338;48.832;9.422;2022-12-18T11:11:37;0.90;46.40
4787;DHT22;62338;48.832;9.422;2022-12-18T11:13:39;0.90;99.90
4787;DHT22;62338;48.832;9.422;2022-12-18T11:15:42;0.80;82.00
4787;DHT22;62338;48.832;9.422;2022-12-18T11:17:48;0.80;1.00
4787;DHT22;62338;48.832;9.422;2022-12-18T11:19:56;0.90;99.90
4787;DHT22;62338;48.832;9.422;2022-12-18T11:22:00;0.60;21.50
4787;DHT22;62338;48.832;9.422;2022-12-18T11:24:02;0.70;20.70
4787;DHT22;62338;48.832;9.422;2022-12-18T11:26:04;0.80;99.90
4787;DHT22;62338;48.832;9.422;2022-12-18T11:28:36;0.90;1.00
4787;DHT22;62338;48.832;9.422;2022-12-18T11:30:39;0.70;1.00
4787;DHT22;62338;48.832;9.422;2022-12-18T11:32:48;1.00;67.50
4787;DHT22;62338;48.832;9.422;2022-12-18T11:34:55;1.30;1.00
4787;DHT22;62338;48.832;9.422;2022-12-18T11:37:00;1.30;1.00
4787;DHT22;62338;48.832;9.422;2022-12-18T11:39:40;1.20;99.90
4787;DHT22;62338;48.832;9.422;2022-12-18T11:42:05;1.60;1.00
4787;DHT22;62338;48.832;9.422;2022-12-18T11:44:25;1.80;99.90
4787;DHT22;62338;48.832;9.422;2022-12-18T11:46:33;1.70;99.90
4787;DHT22;62338;48.832;9.422;2022-12-18T11:48:54;1.70;99.90
4787;DHT22;62338;48.832;9.422;2022-12-18T11:51:02;1.80;1.00
4787;DHT22;62338;48.832;9.422;2022-12-18T11:53:10;1.80;1.00
4787;DHT22;62338;48.832;9.422;2022-12-18T11:55:37;1.70;1.00
4787;DHT22;62338;48.832;9.422;2022-12-18T11:58:03;1.60;99.90
4787;DHT22;62338;48.832;9.422;2022-12-18T12:00:12;1.30;1.00
4787;DHT22;62338;48.832;9.422;2022-12-18T12:16:37;1.30;1.00
4787;DHT22;62338;48.832;9.422;2022-12-18T12:21:33;1.10;1.00
4787;DHT22;62338;48.832;9.422;2022-12-18T12:23:42;0.50;99.90
4787;DHT22;62338;48.832;9.422;2022-12-18T12:25:59;0.60;1.00
4787;DHT22;62338;48.832;9.422;2022-12-18T12:30:51;0.50;99.90
4787;DHT22;62338;48.832;9.422;2022-12-18T12:36:14;0.90;1.00
4787;DHT22;62338;48.832;9.422;2022-12-18T12:38:24;0.90;1.00
4787;DHT22;62338;48.832;9.422;2022-12-18T12:40:28;1.10;99.90
4787;DHT22;62338;48.832;9.422;2022-12-18T12:42:55;1.20;1.00
4787;DHT22;62338;48.832;9.422;2022-12-18T12:45:29;0.90;1.00
4787;DHT22;62338;48.832;9.422;2022-12-18T12:47:42;0.60;1.00
4787;DHT22;62338;48.832;9.422;2022-12-18T12:49:46;0.30;1.00
4787;DHT22;62338;48.832;9.422;2022-12-18T12:52:30;0.30;99.90
4787;DHT22;62338;48.832;9.422;2022-12-18T12:54:31;0.30;1.00
4787;DHT22;62338;48.832;9.422;2022-12-18T12:56:51;0.20;99.90
4787;DHT22;62338;48.832;9.422;2022-12-18T12:59:13;0.20;99.90
4787;DHT22;62338;48.832;9.422;2022-12-18T13:01:25;0.00;1.00
4787;DHT22;62338;48.832;9.422;2022-12-18T13:04:12;0.00;1.00
4787;DHT22;62338;48.832;9.422;2022-12-18T13:06:12;0.00;1.00
4787;DHT22;62338;48.832;9.422;2022-12-18T13:08:27;0.00;1.00
4787;DHT22;62338;48.832;9.422;2022-12-18T13:10:38;0.10;1.00
4787;DHT22;62338;48.832;9.422;2022-12-18T13:13:04;0.20;99.90
4787;DHT22;62338;48.832;9.422;2022-12-18T13:15:21;0.10;1.00
4787;DHT22;62338;48.832;9.422;2022-12-18T13:17:28;-0.10;1.00
4787;DHT22;62338;48.832;9.422;2022-12-18T13:19:30;-0.20;1.00
4787;DHT22;62338;48.832;9.422;2022-12-18T13:21:33;-0.10;1.00
4787;DHT22;62338;48.832;9.422;2022-12-18T13:23:38;-0.30;1.00
4787;DHT22;62338;48.832;9.422;2022-12-18T13:25:41;-0.40;31.00
4787;DHT22;62338;48.832;9.422;2022-12-18T13:29:45;-0.30;1.00
4787;DHT22;62338;48.832;9.422;2022-12-18T13:33:49;-0.30;1.00
4787;DHT22;62338;48.832;9.422;2022-12-18T13:36:29;-0.30;1.00
4787;DHT22;62338;48.832;9.422;2022-12-18T13:38:33;-0.30;1.00
4787;DHT22;62338;48.832;9.422;2022-12-18T13:42:41;-0.30;1.00
4787;DHT22;62338;48.832;9.422;2022-12-18T13:45:01;-0.50;97.60
4787;DHT22;62338;48.832;9.422;2022-12-18T13:47:05;-0.40;97.60
4787;DHT22;62338;48.832;9.422;2022-12-18T13:49:40;-0.40;1.00
4787;DHT22;62338;48.832;9.422;2022-12-18T13:51:54;-0.50;1.00
4787;DHT22;62338;48.832;9.422;2022-12-18T13:54:13;-0.50;99.90
4787;DHT22;62338;48.832;9.422;2022-12-18T13:56:25;-0.50;61.30
4787;DHT22;62338;48.832;9.422;2022-12-18T13:58:29;-0.70;99.90
4787;DHT22;62338;48.832;9.422;2022-12-18T14:00:31;-0.80;99.90
4787;DHT22;62338;48.832;9.422;2022-12-18T14:02:33;-0.90;99.90
4787;DHT22;62338;48.832;9.422;2022-12-18T14:04:36;-1.10;99.90
4787;DHT22;62338;48.832;9.422;2022-12-18T14:06:38;-1.20;99.90
4787;DHT22;62338;48.832;9.422;2022-12-18T14:08:42;-1.20;99.90
4787;DHT22;62338;48.832;9.422;2022-12-18T14:10:47;-1.30;1.00
4787;DHT22;62338;48.832;9.422;2022-12-18T14:12:51;-1.30;1.00
4787;DHT22;62338;48.832;9.422;2022-12-18T14:15:03;-1.40;1.00
4787;DHT22;62338;48.832;9.422;2022-12-18T14:17:09;-1.40;1.00
4787;DHT22;62338;48.832;9.422;2022-12-18T14:19:15;-1.60;1.00
4787;DHT22;62338;48.832;9.422;2022-12-18T14:21:28;-1.60;1.00
4787;DHT22;62338;48.832;9.422;2022-12-18T14:23:41;-1.60;1.00
4787;DHT22;62338;48.832;9.422;2022-12-18T14:25:46;-1.80;1.00
4787;DHT22;62338;48.832;9.422;2022-12-18T14:32:27;-2.30;1.00
4787;DHT22;62338;48.832;9.422;2022-12-18T14:34:28;-2.50;1.00
4787;DHT22;62338;48.832;9.422;2022-12-18T14:36:31;-2.60;1.00
4787;DHT22;62338;48.832;9.422;2022-12-18T14:38:37;-2.60;1.00
4787;DHT22;62338;48.832;9.422;2022-12-18T14:40:40;-2.80;1.00
4787;DHT22;62338;48.832;9.422;2022-12-18T14:42:43;-2.80;1.00
4787;DHT22;62338;48.832;9.422;2022-12-18T14:44:45;-2.90;1.00
4787;DHT22;62338;48.832;9.422;2022-12-18T14:47:14;-2.90;1.00